createdAt,value
2022-09-07T00:00:39.114Z,21.00
2022-09-07T00:03:08.699Z,21.00
2022-09-07T00:05:44.694Z,21.00
2022-09-07T00:08:15.281Z,21.00
2022-09-07T00:10:53.959Z,21.10
2022-09-07T00:13:23.893Z,21.10
2022-09-07T00:15:53.122Z,21.20
2022-09-07T00:18:22.302Z,21.30
2022-09-07T00:21:00.961Z,21.30
2022-09-07T00:23:31.285Z,21.30
2022-09-07T00:26:02.048Z,21.30
2022-09-07T00:28:32.370Z,21.30
2022-09-07T00:31:01.730Z,21.30
2022-09-07T00:33:31.684Z,21.20
2022-09-07T00:36:02.699Z,21.20
2022-09-07T00:38:32.030Z,21.10
2022-09-07T00:41:01.562Z,21.10
2022-09-07T00:43:34.225Z,21.10
2022-09-07T00:46:05.016Z,21.10
2022-09-07T00:48:38.001Z,21.20
2022-09-07T00:51:14.333Z,21.20
2022-09-07T00:53:46.938Z,21.30
2022-09-07T00:56:16.362Z,21.20
2022-09-07T00:58:46.718Z,21.30
2022-09-07T01:01:17.175Z,21.10
2022-09-07T01:03:52.394Z,21.00
2022-09-07T01:06:29.148Z,21.10
2022-09-07T01:09:03.913Z,21.10
2022-09-07T01:11:35.076Z,21.10
2022-09-07T01:14:06.075Z,21.20
2022-09-07T01:16:54.248Z,21.20
2022-09-07T01:20:02.664Z,21.30
2022-09-07T01:22:58.111Z,21.20
2022-09-07T01:25:42.430Z,21.30
2022-09-07T01:28:17.208Z,21.20
2022-09-07T01:30:56.311Z,21.30
2022-09-07T01:33:45.337Z,21.40
2022-09-07T01:36:25.674Z,21.40
2022-09-07T01:38:58.181Z,21.40
2022-09-07T01:41:34.245Z,21.40
2022-09-07T01:44:10.870Z,21.40
2022-09-07T01:46:45.629Z,21.30
2022-09-07T01:49:19.956Z,21.30
2022-09-07T01:51:55.320Z,21.20
2022-09-07T01:54:32.082Z,21.20
2022-09-07T01:57:07.539Z,21.10
2022-09-07T01:59:43.419Z,21.10
2022-09-07T02:02:17.600Z,21.20
2022-09-07T02:04:51.989Z,21.20
2022-09-07T02:07:26.549Z,21.20
2022-09-07T02:10:00.194Z,21.30
2022-09-07T02:12:38.151Z,21.30
2022-09-07T02:15:15.730Z,21.40
2022-09-07T02:17:49.591Z,21.40
2022-09-07T02:20:22.930Z,21.40
2022-09-07T02:22:57.293Z,21.40
2022-09-07T02:25:32.560Z,21.40
2022-09-07T02:28:10.054Z,21.40
2022-09-07T02:30:40.815Z,21.40
2022-09-07T02:33:10.066Z,21.40
2022-09-07T02:35:39.640Z,21.40
2022-09-07T02:38:09.140Z,21.50
2022-09-07T02:40:38.565Z,21.40
2022-09-07T02:43:10.114Z,21.30
2022-09-07T02:46:02.386Z,21.00
2022-09-07T02:48:41.553Z,20.80
2022-09-07T02:51:19.645Z,20.90
2022-09-07T02:54:23.757Z,21.00
2022-09-07T02:57:02.298Z,21.10
2022-09-07T02:59:49.265Z,21.10
2022-09-07T03:02:27.455Z,21.20
2022-09-07T03:05:04.189Z,21.20
2022-09-07T03:07:42.184Z,21.20
2022-09-07T03:10:15.742Z,21.20
2022-09-07T03:12:47.782Z,21.20
2022-09-07T03:15:19.710Z,21.20
2022-09-07T03:17:50.621Z,21.30
2022-09-07T03:20:20.782Z,21.40
2022-09-07T03:22:52.094Z,21.40
2022-09-07T03:25:22.765Z,21.40
2022-09-07T03:27:51.912Z,21.50
2022-09-07T03:30:21.325Z,21.50
2022-09-07T03:32:52.130Z,21.50
2022-09-07T03:35:21.417Z,21.60
2022-09-07T03:37:50.997Z,21.60
2022-09-07T03:40:20.541Z,21.60
2022-09-07T03:42:50.823Z,21.60
2022-09-07T03:45:20.249Z,21.50
2022-09-07T03:47:49.617Z,21.60
2022-09-07T03:50:20.271Z,21.50
2022-09-07T03:52:49.395Z,21.50
2022-09-07T03:55:18.697Z,21.50
2022-09-07T03:57:47.846Z,21.40
2022-09-07T04:00:17.466Z,21.40
2022-09-07T04:02:46.658Z,21.40
2022-09-07T04:05:17.910Z,21.30
2022-09-07T04:07:49.535Z,21.30
2022-09-07T04:10:18.938Z,21.30
2022-09-07T04:12:48.383Z,21.20
2022-09-07T04:15:17.753Z,21.20
2022-09-07T04:17:47.046Z,21.20
2022-09-07T04:20:16.322Z,21.20
2022-09-07T04:22:54.121Z,21.10
2022-09-07T04:25:23.467Z,21.10
2022-09-07T04:27:52.621Z,21.10
2022-09-07T04:30:21.824Z,21.00
2022-09-07T04:32:51.028Z,21.00
2022-09-07T04:35:20.262Z,21.00
2022-09-07T04:37:50.945Z,20.90
2022-09-07T04:40:20.184Z,20.90
2022-09-07T04:42:49.800Z,20.90
2022-09-07T04:45:19.043Z,20.90
2022-09-07T04:47:52.657Z,20.80
2022-09-07T04:50:21.809Z,20.80
2022-09-07T04:52:54.362Z,20.70
2022-09-07T04:55:23.474Z,20.70
2022-09-07T04:57:52.866Z,20.70
2022-09-07T05:00:41.951Z,20.60
2022-09-07T05:03:11.247Z,20.60
2022-09-07T05:05:40.430Z,20.60
2022-09-07T05:08:11.023Z,20.60
2022-09-07T05:10:40.288Z,20.60
2022-09-07T05:13:09.490Z,20.60
2022-09-07T05:15:38.731Z,20.60
2022-09-07T05:18:07.877Z,20.60
2022-09-07T05:20:37.713Z,20.60
2022-09-07T05:23:11.584Z,20.60
2022-09-07T05:25:45.641Z,20.50
2022-09-07T05:28:19.294Z,20.50
2022-09-07T05:36:28.464Z,20.50
2022-09-07T05:39:00.464Z,20.50
2022-09-07T05:41:29.885Z,20.50
2022-09-07T05:46:48.741Z,20.90
2022-09-07T05:49:18.086Z,21.40
2022-09-07T05:51:49.541Z,21.80
2022-09-07T05:54:20.166Z,22.20
2022-09-07T05:56:49.451Z,22.60
2022-09-07T05:59:18.613Z,23.00
2022-09-07T06:01:48.185Z,23.40
2022-09-07T06:04:20.477Z,23.70
2022-09-07T06:07:11.038Z,24.00
2022-09-07T06:12:30.067Z,24.50
2022-09-07T06:15:00.982Z,24.80
2022-09-07T06:17:31.172Z,25.00
2022-09-07T06:20:00.336Z,25.20
2022-09-07T06:22:31.150Z,25.30
2022-09-07T06:25:02.019Z,25.40
2022-09-07T06:27:31.228Z,25.40
2022-09-07T06:30:00.599Z,25.30
2022-09-07T06:32:45.247Z,25.20
2022-09-07T06:35:15.806Z,25.00
2022-09-07T06:37:45.593Z,24.90
2022-09-07T06:40:16.418Z,24.80
2022-09-07T06:42:45.586Z,24.50
2022-09-07T06:45:18.097Z,24.50
2022-09-07T06:47:47.621Z,24.50
2022-09-07T06:50:17.702Z,24.50
2022-09-07T06:55:44.933Z,24.40
2022-09-07T06:58:14.276Z,24.40
2022-09-07T07:00:43.568Z,24.50
2022-09-07T07:03:12.812Z,24.50
2022-09-07T07:05:42.069Z,24.60
2022-09-07T07:08:11.312Z,24.60
2022-09-07T07:10:41.973Z,24.70
2022-09-07T07:13:11.620Z,24.70
2022-09-07T07:15:40.834Z,24.80
2022-09-07T07:18:20.860Z,24.70
2022-09-07T07:20:50.500Z,24.70
2022-09-07T07:23:19.760Z,24.60
2022-09-07T07:25:50.311Z,24.50
2022-09-07T07:31:15.558Z,24.30
2022-09-07T07:33:46.290Z,24.30
2022-09-07T07:36:17.865Z,24.30
2022-09-07T07:39:05.189Z,24.40
2022-09-07T07:44:24.854Z,24.40
2022-09-07T07:46:54.005Z,24.50
2022-09-07T07:49:23.354Z,24.50
2022-09-07T07:54:44.351Z,24.70
2022-09-07T07:57:16.840Z,24.70
2022-09-07T07:59:46.259Z,24.80
2022-09-07T08:02:17.490Z,24.70
2022-09-07T08:04:46.905Z,24.80
2022-09-07T08:07:16.782Z,24.80
2022-09-07T08:09:48.410Z,24.80
2022-09-07T08:12:21.214Z,24.90
2022-09-07T08:14:50.736Z,24.90
2022-09-07T08:17:19.984Z,24.90
2022-09-07T08:19:49.168Z,25.00
2022-09-07T08:22:18.228Z,25.00
2022-09-07T08:24:47.390Z,25.00
2022-09-07T08:27:21.519Z,24.90
2022-09-07T08:29:51.549Z,25.00
2022-09-07T08:32:20.579Z,25.10
2022-09-07T08:34:49.683Z,25.20
2022-09-07T08:37:18.775Z,25.20
2022-09-07T08:39:47.927Z,25.30
2022-09-07T08:42:37.364Z,25.20
2022-09-07T08:45:10.979Z,25.20
2022-09-07T08:47:44.170Z,25.30
2022-09-07T08:50:21.292Z,25.20
2022-09-07T08:52:54.998Z,25.30
2022-09-07T08:55:31.202Z,25.40
2022-09-07T08:58:26.775Z,25.30
2022-09-07T09:06:50.185Z,25.40
2022-09-07T09:09:29.745Z,25.40
2022-09-07T09:12:15.946Z,25.40
2022-09-07T09:15:01.055Z,25.40
2022-09-07T09:17:36.807Z,25.40
2022-09-07T09:20:20.901Z,25.40
2022-09-07T09:22:52.435Z,25.50
2022-09-07T09:25:24.395Z,25.50
2022-09-07T09:27:53.459Z,25.50
2022-09-07T09:30:26.512Z,25.60
2022-09-07T09:33:16.228Z,25.60
2022-09-07T09:35:49.905Z,25.60
2022-09-07T09:38:32.886Z,25.70
2022-09-07T09:41:06.463Z,25.60
2022-09-07T09:43:45.712Z,25.70
2022-09-07T09:46:24.682Z,25.70
2022-09-07T09:48:58.440Z,25.80
2022-09-07T09:54:27.126Z,25.80
2022-09-07T09:56:56.673Z,25.70
2022-09-07T10:05:29.601Z,25.70
2022-09-07T10:07:59.006Z,25.70
2022-09-07T10:10:29.589Z,25.80
2022-09-07T10:12:59.079Z,25.90
2022-09-07T10:15:40.052Z,25.90
2022-09-07T10:18:21.358Z,26.00
2022-09-07T10:20:50.550Z,26.10
2022-09-07T10:23:25.306Z,26.00
2022-09-07T10:25:54.373Z,26.10
2022-09-07T10:29:06.014Z,26.20
2022-09-07T10:31:22.935Z,26.30
2022-09-07T10:37:01.916Z,26.50
2022-09-07T10:39:37.202Z,26.50
2022-09-07T10:42:26.114Z,26.60
2022-09-07T10:45:05.783Z,26.50
2022-09-07T10:47:50.948Z,26.50
2022-09-07T10:50:32.709Z,26.50
2022-09-07T10:53:40.868Z,26.20
2022-09-07T10:56:14.450Z,26.20
2022-09-07T10:59:04.487Z,26.20
2022-09-07T11:01:49.655Z,26.30
2022-09-07T11:04:49.170Z,26.40
2022-09-07T11:07:33.577Z,26.40
2022-09-07T11:10:14.137Z,26.30
2022-09-07T11:12:45.866Z,26.20
2022-09-07T11:15:27.500Z,26.20
2022-09-07T11:18:00.890Z,26.20
2022-09-07T11:20:35.463Z,26.30
2022-09-07T11:23:18.296Z,26.40
2022-09-07T11:25:59.920Z,26.60
2022-09-07T11:28:36.654Z,26.70
2022-09-07T11:31:18.756Z,26.70
2022-09-07T11:36:54.521Z,27.00
2022-09-07T11:39:35.322Z,27.10
2022-09-07T11:45:06.011Z,27.40
2022-09-07T11:47:39.871Z,27.50
2022-09-07T11:50:17.742Z,27.70
2022-09-07T11:52:54.736Z,27.90
2022-09-07T11:55:28.732Z,27.90
2022-09-07T11:58:35.456Z,27.80
2022-09-07T12:01:21.394Z,27.90
2022-09-07T12:04:24.910Z,27.70
2022-09-07T12:07:36.714Z,27.70
2022-09-07T12:10:55.459Z,27.60
2022-09-07T12:14:03.834Z,27.70
2022-09-07T12:16:52.316Z,27.90
2022-09-07T12:19:23.623Z,27.80
2022-09-07T12:21:58.063Z,28.00
2022-09-07T12:24:44.836Z,28.00
2022-09-07T12:27:40.258Z,28.10
2022-09-07T12:30:58.827Z,28.10
2022-09-07T12:33:34.726Z,27.90
2022-09-07T12:36:47.862Z,27.80
2022-09-07T12:39:25.746Z,27.80
2022-09-07T12:42:32.263Z,27.90
2022-09-07T12:45:49.658Z,28.00
2022-09-07T12:48:42.126Z,27.90
2022-09-07T12:54:19.957Z,28.00
2022-09-07T13:00:05.361Z,28.10
2022-09-07T13:02:59.591Z,28.10
2022-09-07T13:05:46.429Z,28.20
2022-09-07T13:08:44.564Z,28.10
2022-09-07T13:11:29.356Z,28.00
2022-09-07T13:14:03.725Z,28.10
2022-09-07T13:20:24.078Z,28.20
2022-09-07T13:23:25.000Z,28.20
2022-09-07T13:25:57.541Z,28.30
2022-09-07T13:28:54.952Z,28.30
2022-09-07T13:31:49.900Z,28.40
2022-09-07T13:35:00.096Z,28.60
2022-09-07T13:37:36.501Z,28.60
2022-09-07T13:40:11.821Z,28.60
2022-09-07T13:42:44.441Z,28.50
2022-09-07T13:45:33.192Z,28.40
2022-09-07T13:48:13.800Z,28.40
2022-09-07T13:50:54.032Z,28.30
2022-09-07T13:53:54.555Z,28.30
2022-09-07T13:56:39.827Z,28.40
2022-09-07T13:59:22.739Z,28.30
2022-09-07T14:01:52.681Z,28.40
2022-09-07T14:04:27.051Z,28.40
2022-09-07T14:07:03.643Z,28.40
2022-09-07T14:09:35.632Z,28.50
2022-09-07T14:12:15.049Z,28.50
2022-09-07T14:14:44.200Z,28.60
2022-09-07T14:17:16.898Z,28.50
2022-09-07T14:19:49.802Z,28.40
2022-09-07T14:22:21.037Z,28.30
2022-09-07T14:24:54.463Z,28.20
2022-09-07T14:27:26.116Z,28.10
2022-09-07T14:29:55.352Z,28.10
2022-09-07T14:32:27.278Z,28.20
2022-09-07T14:34:56.593Z,28.10
2022-09-07T14:37:25.777Z,28.10
2022-09-07T14:39:56.479Z,28.10
2022-09-07T14:42:25.917Z,28.20
2022-09-07T14:45:32.708Z,28.20
2022-09-07T14:48:12.889Z,28.20
2022-09-07T14:50:54.033Z,28.20
2022-09-07T14:53:35.269Z,28.10
2022-09-07T14:56:11.480Z,28.10
2022-09-07T14:58:40.441Z,28.10
2022-09-07T15:04:19.495Z,28.00
2022-09-07T15:07:04.039Z,27.80
2022-09-07T15:09:39.089Z,27.80
2022-09-07T15:12:27.173Z,27.90
2022-09-07T15:15:12.528Z,28.00
2022-09-07T15:17:43.276Z,27.90
2022-09-07T15:20:43.305Z,28.00
2022-09-07T15:23:15.381Z,27.90
2022-09-07T15:25:51.019Z,27.90
2022-09-07T15:34:12.713Z,27.90
2022-09-07T15:36:44.633Z,27.90
2022-09-07T15:39:19.063Z,27.80
2022-09-07T15:41:48.716Z,27.80
2022-09-07T15:44:24.298Z,27.60
2022-09-07T15:49:49.547Z,27.50
2022-09-07T15:52:19.772Z,27.40
2022-09-07T15:54:49.032Z,27.40
2022-09-07T16:00:10.863Z,27.30
2022-09-07T16:05:39.929Z,27.30
2022-09-07T16:11:05.481Z,27.40
2022-09-07T16:13:36.132Z,27.40
2022-09-07T16:16:08.312Z,27.40
2022-09-07T16:18:39.995Z,27.40
2022-09-07T16:21:12.290Z,27.30
2022-09-07T16:23:44.259Z,27.30
2022-09-07T16:26:14.195Z,27.20
2022-09-07T16:28:45.805Z,27.10
2022-09-07T16:31:20.495Z,27.10
2022-09-07T16:33:49.676Z,27.00
2022-09-07T16:36:19.753Z,27.00
2022-09-07T16:38:49.118Z,26.90
2022-09-07T16:41:20.936Z,27.00
2022-09-07T16:43:50.631Z,27.00
2022-09-07T16:46:23.279Z,27.00
2022-09-07T16:48:54.362Z,26.90
2022-09-07T16:51:25.810Z,27.00
2022-09-07T16:53:58.719Z,26.80
2022-09-07T16:56:30.435Z,26.80
2022-09-07T16:59:01.364Z,26.70
2022-09-07T17:01:34.345Z,26.80
2022-09-07T17:04:08.204Z,26.70
2022-09-07T17:06:41.033Z,26.70
2022-09-07T17:09:11.698Z,26.70
2022-09-07T17:11:40.736Z,26.60
2022-09-07T17:14:09.732Z,26.50
2022-09-07T17:16:41.874Z,26.60
2022-09-07T17:22:02.056Z,26.50
2022-09-07T17:24:32.297Z,26.50
2022-09-07T17:27:02.030Z,26.40
2022-09-07T17:29:37.081Z,26.40
2022-09-07T17:32:24.490Z,26.40
2022-09-07T17:34:55.298Z,26.40
2022-09-07T17:37:25.413Z,26.40
2022-09-07T17:39:54.951Z,26.40
2022-09-07T17:42:26.183Z,26.40
2022-09-07T17:44:55.334Z,26.40
2022-09-07T17:47:25.719Z,26.50
2022-09-07T17:49:54.706Z,26.40
2022-09-07T17:52:26.023Z,26.50
2022-09-07T17:54:58.657Z,26.50
2022-09-07T17:57:29.935Z,26.40
2022-09-07T18:00:11.349Z,26.30
2022-09-07T18:02:51.165Z,26.20
2022-09-07T18:05:22.090Z,26.10
2022-09-07T18:07:51.285Z,26.00
2022-09-07T18:10:27.024Z,25.80
2022-09-07T18:12:56.610Z,25.60
2022-09-07T18:15:25.677Z,25.40
2022-09-07T18:18:00.211Z,25.20
2022-09-07T18:20:32.975Z,25.20
2022-09-07T18:23:02.895Z,25.10
2022-09-07T18:25:32.357Z,25.00
2022-09-07T18:30:58.196Z,24.80
2022-09-07T18:33:28.534Z,24.80
2022-09-07T18:35:58.183Z,24.70
2022-09-07T18:38:34.630Z,24.80
2022-09-07T18:41:09.385Z,24.80
2022-09-07T18:43:40.905Z,24.70
2022-09-07T18:46:17.677Z,24.60
2022-09-07T18:48:48.524Z,24.60
2022-09-07T18:51:21.823Z,24.50
2022-09-07T18:54:05.203Z,24.40
2022-09-07T18:56:34.562Z,24.40
2022-09-07T18:59:09.416Z,24.40
2022-09-07T19:01:40.132Z,24.60
2022-09-07T19:04:10.667Z,24.40
2022-09-07T19:06:39.836Z,24.20
2022-09-07T19:09:09.224Z,24.20
2022-09-07T19:11:41.367Z,24.10
2022-09-07T19:14:11.711Z,24.20
2022-09-07T19:16:41.660Z,24.30
2022-09-07T19:19:14.454Z,24.20
2022-09-07T19:21:45.828Z,24.10
2022-09-07T19:24:17.851Z,24.00
2022-09-07T19:26:49.890Z,23.90
2022-09-07T19:29:20.058Z,23.80
2022-09-07T19:32:04.968Z,23.90
2022-09-07T19:34:37.703Z,24.00
2022-09-07T19:37:09.163Z,24.00
2022-09-07T19:39:38.323Z,24.00
2022-09-07T19:42:08.385Z,24.00
2022-09-07T19:44:37.386Z,24.10
2022-09-07T19:47:07.314Z,24.10
2022-09-07T19:49:37.654Z,24.10
2022-09-07T19:52:06.766Z,24.10
2022-09-07T19:54:36.333Z,24.10
2022-09-07T19:57:05.711Z,24.10
2022-09-07T19:59:34.760Z,24.10
2022-09-07T20:02:03.719Z,24.10
2022-09-07T20:04:33.255Z,24.00
2022-09-07T20:07:03.940Z,24.00
2022-09-07T20:09:32.918Z,24.00
2022-09-07T20:12:03.675Z,24.00
2022-09-07T20:14:32.676Z,24.00
2022-09-07T20:17:02.302Z,23.90
2022-09-07T20:19:31.222Z,23.90
2022-09-07T20:22:00.352Z,23.90
2022-09-07T20:24:31.262Z,23.90
2022-09-07T20:27:02.626Z,23.80
2022-09-07T20:29:32.300Z,23.70
2022-09-07T20:32:02.660Z,23.60
2022-09-07T20:34:32.123Z,23.50
2022-09-07T20:37:01.065Z,23.50
2022-09-07T20:39:35.733Z,23.50
2022-09-07T20:42:08.886Z,23.50
2022-09-07T20:44:38.044Z,23.30
2022-09-07T20:47:07.183Z,23.30
2022-09-07T20:49:36.198Z,23.30
2022-09-07T20:52:05.248Z,23.30
2022-09-07T20:54:37.659Z,23.30
2022-09-07T20:57:06.786Z,23.30
2022-09-07T20:59:35.721Z,23.20
2022-09-07T21:02:04.855Z,23.20
2022-09-07T21:04:33.878Z,23.20
2022-09-07T21:07:03.163Z,23.20
2022-09-07T21:09:32.178Z,23.10
2022-09-07T21:12:02.867Z,23.10
2022-09-07T21:14:31.860Z,23.00
2022-09-07T21:17:00.828Z,23.00
2022-09-07T21:19:29.939Z,23.00
2022-09-07T21:21:58.915Z,22.90
2022-09-07T21:24:30.864Z,22.90
2022-09-07T21:26:59.818Z,22.90
2022-09-07T21:29:30.176Z,22.80
2022-09-07T21:31:59.182Z,22.90
2022-09-07T21:34:28.247Z,22.80
2022-09-07T21:36:57.301Z,22.90
2022-09-07T21:39:26.305Z,22.90
2022-09-07T21:41:55.304Z,22.80
2022-09-07T21:44:24.565Z,22.90
2022-09-07T21:46:55.167Z,22.90
2022-09-07T21:49:24.248Z,22.90
2022-09-07T21:51:53.221Z,23.00
2022-09-07T21:54:22.225Z,23.00
2022-09-07T21:56:53.147Z,23.00
2022-09-07T21:59:22.097Z,23.00
2022-09-07T22:01:51.453Z,23.00
2022-09-07T22:04:22.320Z,23.00
2022-09-07T22:06:51.418Z,23.00
2022-09-07T22:09:20.437Z,23.00
2022-09-07T22:11:49.511Z,23.00
2022-09-07T22:14:18.512Z,23.00
2022-09-07T22:16:47.465Z,23.00
2022-09-07T22:19:16.487Z,22.90
2022-09-07T22:21:46.811Z,22.80
2022-09-07T22:24:15.935Z,22.70
2022-09-07T22:26:46.339Z,22.70
2022-09-07T22:29:15.313Z,22.70
2022-09-07T22:31:44.474Z,22.70
2022-09-07T22:34:13.870Z,22.70
2022-09-07T22:36:45.014Z,22.80
2022-09-07T22:39:18.760Z,22.80
2022-09-07T22:41:48.578Z,22.80
2022-09-07T22:44:19.252Z,22.70
2022-09-07T22:46:48.989Z,22.70
2022-09-07T22:49:18.870Z,22.70
2022-09-07T22:51:48.151Z,22.60
2022-09-07T22:54:18.554Z,22.60
2022-09-07T22:56:47.569Z,22.60
2022-09-07T22:59:16.714Z,22.60
2022-09-07T23:01:46.074Z,22.60
2022-09-07T23:04:15.286Z,22.70
2022-09-07T23:06:44.838Z,22.70
2022-09-07T23:09:16.087Z,22.70
2022-09-07T23:11:47.765Z,22.70
2022-09-07T23:14:19.342Z,22.70
2022-09-07T23:16:49.291Z,22.70
2022-09-07T23:19:19.618Z,22.70
2022-09-07T23:21:49.122Z,22.70
2022-09-07T23:24:20.072Z,22.70
2022-09-07T23:26:50.532Z,22.70
2022-09-07T23:29:21.080Z,22.70
2022-09-07T23:31:50.185Z,22.70
2022-09-07T23:34:19.597Z,22.70
2022-09-07T23:36:48.863Z,22.70
2022-09-07T23:39:17.842Z,22.70
2022-09-07T23:41:46.957Z,22.60
2022-09-07T23:44:17.400Z,22.70
2022-09-07T23:46:46.495Z,22.70
2022-09-07T23:49:15.541Z,22.70
2022-09-07T23:51:44.663Z,22.70
2022-09-07T23:54:13.667Z,22.70
2022-09-07T23:56:42.667Z,22.70
2022-09-07T23:59:11.788Z,22.70
